createdAt,value
2019-01-18T00:02:21.246Z,48.67
2019-01-18T00:04:52.376Z,52.33
2019-01-18T00:07:23.488Z,45.20
2019-01-18T00:09:54.438Z,44.53
2019-01-18T00:12:25.777Z,49.03
2019-01-18T00:14:56.845Z,45.33
2019-01-18T00:17:28.511Z,53.57
2019-01-18T00:19:59.592Z,44.87
2019-01-18T00:22:30.678Z,46.87
2019-01-18T00:25:02.614Z,48.63
2019-01-18T00:27:33.411Z,49.60
2019-01-18T00:30:05.721Z,54.73
2019-01-18T00:32:37.072Z,55.23
2019-01-18T00:35:08.810Z,42.03
2019-01-18T00:37:39.880Z,48.23
2019-01-18T00:40:11.615Z,50.67
2019-01-18T00:42:42.571Z,52.10
2019-01-18T00:45:18.935Z,47.53
2019-01-18T00:47:49.379Z,52.13
2019-01-18T00:50:20.979Z,43.80
2019-01-18T00:52:51.651Z,47.37
2019-01-18T00:55:23.519Z,42.73
2019-01-18T00:57:54.620Z,38.80
2019-01-18T01:00:27.692Z,41.70
2019-01-18T01:02:59.348Z,35.37
2019-01-18T01:05:30.830Z,49.37
2019-01-18T01:08:02.877Z,47.43
2019-01-18T01:10:33.865Z,39.77
2019-01-18T01:13:05.465Z,39.47
2019-01-18T01:15:37.010Z,30.23
2019-01-18T01:18:09.073Z,34.57
2019-01-18T01:20:41.163Z,32.57
2019-01-18T01:23:12.035Z,32.23
2019-01-18T01:25:43.262Z,34.67
2019-01-18T01:28:14.001Z,35.30
2019-01-18T01:30:46.076Z,30.97
2019-01-18T01:33:17.165Z,28.37
2019-01-18T01:35:48.166Z,27.93
2019-01-18T01:38:20.077Z,29.80
2019-01-18T01:40:51.983Z,29.30
2019-01-18T01:43:23.259Z,29.07
2019-01-18T01:45:53.970Z,32.17
2019-01-18T01:48:24.861Z,27.47
2019-01-18T01:50:55.938Z,30.90
2019-01-18T01:53:27.097Z,24.87
2019-01-18T01:55:58.784Z,28.77
2019-01-18T01:58:30.898Z,28.70
2019-01-18T02:01:03.386Z,25.53
2019-01-18T02:03:34.228Z,20.27
2019-01-18T02:06:05.335Z,26.00
2019-01-18T02:08:36.214Z,19.20
2019-01-18T02:11:07.057Z,21.97
2019-01-18T02:13:38.050Z,18.53
2019-01-18T02:16:08.921Z,19.63
2019-01-18T02:18:40.007Z,20.10
2019-01-18T02:21:12.168Z,20.40
2019-01-18T02:23:43.328Z,15.57
2019-01-18T02:26:14.071Z,18.37
2019-01-18T02:28:45.286Z,14.63
2019-01-18T02:31:16.257Z,17.97
2019-01-18T02:33:47.831Z,14.30
2019-01-18T02:36:19.061Z,13.47
2019-01-18T02:38:50.543Z,13.40
2019-01-18T02:41:21.295Z,11.20
2019-01-18T02:43:52.524Z,12.20
2019-01-18T02:46:23.461Z,13.40
2019-01-18T02:48:54.495Z,6.73
2019-01-18T02:51:25.916Z,8.90
2019-01-18T02:53:56.772Z,7.13
2019-01-18T02:56:28.146Z,7.90
2019-01-18T02:58:59.350Z,7.87
2019-01-18T03:01:30.517Z,6.10
2019-01-18T03:04:02.294Z,12.20
2019-01-18T03:06:33.187Z,7.77
2019-01-18T03:09:07.262Z,5.13
2019-01-18T03:11:38.361Z,7.27
2019-01-18T03:14:10.132Z,12.43
2019-01-18T03:16:41.815Z,8.77
2019-01-18T03:19:12.618Z,9.23
2019-01-18T03:21:44.275Z,6.87
2019-01-18T03:24:16.169Z,7.00
2019-01-18T03:26:48.078Z,5.87
2019-01-18T03:29:19.627Z,6.80
2019-01-18T03:31:52.660Z,8.47
2019-01-18T03:34:24.296Z,9.00
2019-01-18T03:36:55.748Z,8.47
2019-01-18T03:39:26.877Z,6.83
2019-01-18T03:41:57.897Z,7.90
2019-01-18T03:44:29.097Z,8.67
2019-01-18T03:47:00.474Z,7.60
2019-01-18T03:49:32.534Z,7.67
2019-01-18T03:52:03.340Z,7.83
2019-01-18T03:54:34.864Z,8.53
2019-01-18T03:57:06.348Z,9.73
2019-01-18T03:59:37.596Z,9.00
2019-01-18T04:02:08.541Z,8.27
2019-01-18T04:04:40.258Z,8.67
2019-01-18T04:07:11.743Z,7.53
2019-01-18T04:09:42.970Z,10.53
2019-01-18T04:12:14.186Z,8.63
2019-01-18T04:14:46.141Z,9.70
2019-01-18T04:17:17.858Z,10.37
2019-01-18T04:19:48.969Z,9.40
2019-01-18T04:22:20.038Z,9.67
2019-01-18T04:24:51.122Z,10.37
2019-01-18T04:27:23.356Z,11.03
2019-01-18T04:29:54.818Z,12.60
2019-01-18T04:32:26.660Z,13.47
2019-01-18T04:34:57.689Z,13.73
2019-01-18T04:37:29.044Z,10.43
2019-01-18T04:40:00.663Z,11.53
2019-01-18T04:42:31.861Z,9.30
2019-01-18T04:45:02.796Z,11.77
2019-01-18T04:47:34.314Z,9.23
2019-01-18T04:50:07.046Z,8.27
2019-01-18T04:52:38.694Z,8.80
2019-01-18T04:55:10.356Z,8.23
2019-01-18T04:57:41.672Z,11.30
2019-01-18T05:00:18.649Z,10.13
2019-01-18T05:02:49.884Z,11.47
2019-01-18T05:05:22.305Z,11.67
2019-01-18T05:07:54.360Z,10.10
2019-01-18T05:10:27.045Z,6.90
2019-01-18T05:12:59.223Z,10.47
2019-01-18T05:15:33.190Z,8.67
2019-01-18T05:18:04.918Z,9.70
2019-01-18T05:20:36.225Z,6.00
2019-01-18T05:23:07.988Z,5.40
2019-01-18T05:25:38.903Z,6.70
2019-01-18T05:28:10.279Z,7.40
2019-01-18T05:30:47.328Z,10.93
2019-01-18T05:33:13.682Z,8.67
2019-01-18T05:35:46.019Z,11.13
2019-01-18T05:38:17.016Z,8.50
2019-01-18T05:40:48.149Z,9.90
2019-01-18T05:43:19.886Z,9.53
2019-01-18T05:45:51.424Z,12.27
2019-01-18T05:48:22.267Z,10.63
2019-01-18T05:50:53.507Z,7.03
2019-01-18T05:53:25.300Z,11.53
2019-01-18T05:55:57.088Z,9.90
2019-01-18T05:58:28.824Z,6.70
2019-01-18T06:01:08.045Z,7.93
2019-01-18T06:03:39.480Z,7.40
2019-01-18T06:06:11.238Z,10.60
2019-01-18T06:08:42.117Z,5.93
2019-01-18T06:11:13.459Z,7.33
2019-01-18T06:13:44.567Z,5.73
2019-01-18T06:16:16.403Z,6.03
2019-01-18T06:18:47.786Z,8.23
2019-01-18T06:21:21.522Z,8.43
2019-01-18T06:23:53.436Z,8.87
2019-01-18T06:26:24.659Z,11.77
2019-01-18T06:28:56.439Z,6.73
2019-01-18T06:31:27.385Z,8.37
2019-01-18T06:33:59.641Z,9.83
2019-01-18T06:36:30.473Z,8.03
2019-01-18T06:39:01.825Z,8.13
2019-01-18T06:41:46.255Z,8.87
2019-01-18T06:44:17.035Z,8.20
2019-01-18T06:46:49.605Z,7.23
2019-01-18T06:49:20.912Z,8.57
2019-01-18T06:51:51.812Z,8.37
2019-01-18T06:54:23.115Z,9.97
2019-01-18T06:56:54.138Z,10.43
2019-01-18T06:59:25.777Z,5.40
2019-01-18T07:01:57.176Z,10.10
2019-01-18T07:04:28.258Z,9.90
2019-01-18T07:06:58.972Z,5.63
2019-01-18T07:09:30.080Z,6.53
2019-01-18T07:12:01.221Z,7.93
2019-01-18T07:14:33.457Z,8.77
2019-01-18T07:17:05.190Z,7.57
2019-01-18T07:19:36.715Z,10.90
2019-01-18T07:22:09.035Z,12.30
2019-01-18T07:24:40.502Z,16.50
2019-01-18T07:27:11.578Z,8.53
2019-01-18T07:29:43.081Z,12.83
2019-01-18T07:32:13.998Z,8.83
2019-01-18T07:34:45.517Z,10.10
2019-01-18T07:37:16.494Z,9.53
2019-01-18T07:39:48.044Z,9.10
2019-01-18T07:42:19.525Z,10.47
2019-01-18T07:44:50.429Z,7.00
2019-01-18T07:47:21.185Z,9.83
2019-01-18T07:49:52.305Z,10.53
2019-01-18T07:52:23.789Z,9.67
2019-01-18T07:54:54.453Z,8.80
2019-01-18T07:57:25.370Z,8.83
2019-01-18T07:59:56.332Z,13.33
2019-01-18T08:02:27.292Z,13.40
2019-01-18T08:04:58.451Z,14.87
2019-01-18T08:07:29.689Z,12.57
2019-01-18T08:10:00.731Z,12.40
2019-01-18T08:12:31.690Z,15.00
2019-01-18T08:15:03.056Z,11.67
2019-01-18T08:17:34.291Z,20.60
2019-01-18T08:20:06.459Z,13.67
2019-01-18T08:22:37.370Z,14.97
2019-01-18T08:25:09.571Z,13.83
2019-01-18T08:27:40.422Z,15.90
2019-01-18T08:30:17.702Z,22.77
2019-01-18T08:32:49.377Z,17.27
2019-01-18T08:35:21.423Z,19.67
2019-01-18T08:37:52.826Z,20.00
2019-01-18T08:40:32.422Z,18.10
2019-01-18T08:43:03.701Z,19.93
2019-01-18T08:45:37.743Z,23.60
2019-01-18T08:48:09.382Z,25.70
2019-01-18T08:50:40.982Z,22.30
2019-01-18T08:53:12.564Z,21.63
2019-01-18T08:55:44.476Z,19.87
2019-01-18T08:58:15.515Z,21.53
2019-01-18T09:00:46.199Z,23.03
2019-01-18T09:03:17.009Z,24.43
2019-01-18T09:05:47.965Z,17.60
2019-01-18T09:08:20.072Z,14.17
2019-01-18T09:10:51.134Z,13.23
2019-01-18T09:13:22.352Z,13.97
2019-01-18T09:15:54.184Z,10.90
2019-01-18T09:18:25.446Z,9.03
2019-01-18T09:20:57.187Z,9.33
2019-01-18T09:23:28.319Z,7.43
2019-01-18T09:26:00.025Z,14.07
2019-01-18T09:28:31.007Z,5.73
2019-01-18T09:31:01.810Z,7.07
2019-01-18T09:33:32.807Z,7.23
2019-01-18T09:36:04.632Z,7.67
2019-01-18T09:38:35.978Z,7.80
2019-01-18T09:41:07.339Z,7.57
2019-01-18T09:43:39.210Z,8.33
2019-01-18T09:46:10.983Z,7.57
2019-01-18T09:48:42.370Z,9.53
2019-01-18T09:51:13.490Z,9.67
2019-01-18T09:53:44.620Z,8.80
2019-01-18T09:56:15.882Z,7.23
2019-01-18T09:58:47.505Z,8.90
2019-01-18T10:01:19.253Z,9.10
2019-01-18T10:03:50.710Z,7.80
2019-01-18T10:06:22.457Z,8.37
2019-01-18T10:08:54.398Z,5.20
2019-01-18T10:11:25.475Z,8.07
2019-01-18T10:13:56.778Z,6.13
2019-01-18T10:16:27.832Z,9.00
2019-01-18T10:18:59.137Z,6.47
2019-01-18T10:21:30.379Z,9.33
2019-01-18T10:24:02.454Z,13.77
2019-01-18T10:26:33.352Z,8.23
2019-01-18T10:29:05.420Z,7.67
2019-01-18T10:31:36.791Z,8.07
2019-01-18T10:34:07.920Z,10.07
2019-01-18T10:36:39.018Z,9.83
2019-01-18T10:39:11.447Z,8.93
2019-01-18T10:41:43.118Z,11.37
2019-01-18T10:44:14.295Z,11.70
2019-01-18T10:46:45.312Z,7.80
2019-01-18T10:49:16.870Z,9.97
2019-01-18T10:51:48.080Z,8.73
2019-01-18T10:54:20.419Z,9.70
2019-01-18T10:56:51.628Z,13.70
2019-01-18T10:59:22.800Z,9.77
2019-01-18T11:01:59.573Z,9.03
2019-01-18T11:04:26.471Z,10.40
2019-01-18T11:06:58.010Z,10.47
2019-01-18T11:09:28.798Z,7.57
2019-01-18T11:12:00.492Z,14.37
2019-01-18T11:14:31.412Z,13.43
2019-01-18T11:17:02.867Z,9.43
2019-01-18T11:19:33.408Z,10.97
2019-01-18T11:22:05.077Z,10.37
2019-01-18T11:24:36.153Z,8.13
2019-01-18T11:27:07.736Z,7.80
2019-01-18T11:29:41.887Z,9.20
2019-01-18T11:32:13.782Z,7.87
2019-01-18T11:34:46.139Z,15.80
2019-01-18T11:37:17.642Z,6.43
2019-01-18T11:39:49.582Z,10.17
2019-01-18T11:42:21.222Z,12.27
2019-01-18T11:44:52.947Z,17.10
2019-01-18T11:47:24.129Z,10.77
2019-01-18T11:49:55.660Z,10.73
2019-01-18T11:52:26.807Z,13.70
2019-01-18T11:54:59.527Z,20.33
2019-01-18T11:57:30.656Z,10.93
2019-01-18T12:00:01.952Z,14.93
2019-01-18T12:02:33.819Z,10.27
2019-01-18T12:05:05.378Z,12.80
2019-01-18T12:07:37.020Z,11.53
2019-01-18T12:10:10.945Z,9.80
2019-01-18T12:12:42.002Z,12.20
2019-01-18T12:15:13.446Z,10.80
2019-01-18T12:17:45.576Z,15.63
2019-01-18T12:20:20.210Z,10.73
2019-01-18T12:22:53.353Z,11.47
2019-01-18T12:25:24.646Z,9.37
2019-01-18T12:27:55.785Z,13.63
2019-01-18T12:30:29.713Z,8.43
2019-01-18T12:33:00.991Z,11.90
2019-01-18T12:35:32.010Z,13.50
2019-01-18T12:38:04.246Z,8.00
2019-01-18T12:40:35.422Z,9.80
2019-01-18T12:43:07.129Z,7.60
2019-01-18T12:45:39.266Z,8.23
2019-01-18T12:48:10.737Z,9.40
2019-01-18T12:50:42.889Z,15.87
2019-01-18T12:53:14.873Z,47.23
2019-01-18T12:55:46.618Z,24.80
2019-01-18T12:58:18.963Z,9.07
2019-01-18T13:00:49.959Z,7.47
2019-01-18T13:03:21.549Z,10.83
2019-01-18T13:05:54.516Z,10.33
2019-01-18T13:08:25.693Z,7.67
2019-01-18T13:10:56.713Z,10.77
2019-01-18T13:13:28.280Z,12.60
2019-01-18T13:16:23.366Z,8.87
2019-01-18T13:18:57.581Z,8.60
2019-01-18T13:21:28.309Z,8.00
2019-01-18T13:23:59.604Z,12.30
2019-01-18T13:26:30.353Z,8.10
2019-01-18T13:29:01.796Z,9.03
2019-01-18T13:31:33.831Z,10.77
2019-01-18T13:34:05.704Z,7.47
2019-01-18T13:36:36.802Z,9.90
2019-01-18T13:39:10.454Z,11.53
2019-01-18T13:41:41.540Z,9.73
2019-01-18T13:44:13.315Z,10.27
2019-01-18T13:46:44.681Z,11.10
2019-01-18T13:49:16.290Z,19.93
2019-01-18T13:51:47.358Z,8.57
2019-01-18T13:54:18.525Z,11.43
2019-01-18T13:56:49.744Z,11.47
2019-01-18T13:59:21.590Z,8.87
2019-01-18T14:01:52.481Z,8.83
2019-01-18T14:04:23.787Z,7.23
2019-01-18T14:06:56.082Z,10.40
2019-01-18T14:09:27.502Z,8.57
2019-01-18T14:11:59.225Z,9.90
2019-01-18T14:14:30.816Z,13.30
2019-01-18T14:17:01.956Z,7.20
2019-01-18T14:19:33.337Z,8.90
2019-01-18T14:22:04.014Z,10.37
2019-01-18T14:24:35.221Z,6.13
2019-01-18T14:27:07.764Z,8.63
2019-01-18T14:29:39.228Z,14.37
2019-01-18T14:32:10.480Z,10.97
2019-01-18T14:34:42.595Z,11.83
2019-01-18T14:37:14.077Z,11.07
2019-01-18T14:39:45.683Z,6.97
2019-01-18T14:42:16.881Z,9.83
2019-01-18T14:44:47.491Z,10.83
2019-01-18T14:47:18.885Z,8.50
2019-01-18T14:49:50.326Z,7.53
2019-01-18T14:52:22.335Z,5.73
2019-01-18T14:54:54.204Z,7.47
2019-01-18T14:57:25.451Z,8.93
2019-01-18T14:59:57.832Z,10.10
2019-01-18T15:02:28.913Z,17.33
2019-01-18T15:05:05.481Z,12.40
2019-01-18T15:07:36.902Z,12.73
2019-01-18T15:10:10.127Z,10.63
2019-01-18T15:12:42.306Z,14.23
2019-01-18T15:15:15.105Z,10.23
2019-01-18T15:17:46.597Z,15.60
2019-01-18T15:20:20.597Z,11.20
2019-01-18T15:22:51.850Z,12.03
2019-01-18T15:25:22.579Z,9.87
2019-01-18T15:27:53.756Z,12.70
2019-01-18T15:30:27.690Z,11.40
2019-01-18T15:33:09.293Z,12.90
2019-01-18T15:35:41.241Z,10.60
2019-01-18T15:38:15.204Z,8.73
2019-01-18T15:40:49.117Z,15.93
2019-01-18T15:43:23.437Z,8.43
2019-01-18T15:45:56.992Z,10.47
2019-01-18T15:48:28.080Z,15.73
2019-01-18T15:50:59.936Z,9.70
2019-01-18T15:53:31.147Z,17.50
2019-01-18T15:56:02.092Z,17.40
2019-01-18T15:58:33.145Z,10.07
2019-01-18T16:01:12.941Z,13.30
2019-01-18T16:03:45.148Z,16.30
2019-01-18T16:06:16.501Z,10.63
2019-01-18T16:08:47.444Z,13.63
2019-01-18T16:11:18.109Z,13.80
2019-01-18T16:13:50.136Z,14.07
2019-01-18T16:16:29.393Z,18.33
2019-01-18T16:19:01.139Z,14.87
2019-01-18T16:21:32.314Z,11.60
2019-01-18T16:24:03.736Z,12.27
2019-01-18T16:26:34.514Z,17.63
2019-01-18T16:29:06.105Z,13.03
2019-01-18T16:31:36.892Z,18.63
2019-01-18T16:34:11.938Z,21.70
2019-01-18T16:36:43.539Z,31.70
2019-01-18T16:39:14.951Z,29.70
2019-01-18T16:41:46.068Z,35.37
2019-01-18T16:44:17.294Z,35.53
2019-01-18T16:46:50.748Z,32.73
2019-01-18T16:49:21.971Z,29.83
2019-01-18T16:51:52.700Z,36.00
2019-01-18T16:54:24.181Z,28.63
2019-01-18T16:56:55.236Z,31.63
2019-01-18T16:59:26.374Z,37.73
2019-01-18T17:01:57.725Z,29.70
2019-01-18T17:04:29.432Z,34.10
2019-01-18T17:07:00.556Z,32.57
2019-01-18T17:09:32.271Z,27.93
2019-01-18T17:12:03.320Z,29.77
2019-01-18T17:14:35.297Z,31.63
2019-01-18T17:17:06.360Z,32.13
2019-01-18T17:19:38.067Z,28.97
2019-01-18T17:22:09.598Z,35.60
2019-01-18T17:24:41.245Z,34.90
2019-01-18T17:27:12.211Z,39.13
2019-01-18T17:29:43.303Z,33.47
2019-01-18T17:32:14.792Z,30.47
2019-01-18T17:34:45.694Z,30.47
2019-01-18T17:37:22.684Z,29.13
2019-01-18T17:40:07.585Z,28.50
2019-01-18T17:43:09.752Z,32.50
2019-01-18T17:46:15.230Z,32.50
2019-01-18T17:49:24.407Z,26.23
2019-01-18T17:52:24.182Z,29.87
2019-01-18T17:55:00.488Z,29.33
2019-01-18T17:58:09.864Z,28.07
2019-01-18T18:01:09.123Z,29.17
2019-01-18T18:04:02.268Z,26.17
2019-01-18T18:06:47.772Z,21.00
2019-01-18T18:09:42.949Z,21.83
2019-01-18T18:12:38.225Z,22.00
2019-01-18T18:15:27.873Z,19.60
2019-01-18T18:18:09.313Z,19.33
2019-01-18T18:21:06.509Z,20.40
2019-01-18T18:23:51.955Z,23.23
2019-01-18T18:26:56.399Z,22.27
2019-01-18T18:30:05.874Z,45.37
2019-01-18T18:33:14.738Z,21.40
2019-01-18T18:36:23.696Z,19.77
2019-01-18T18:39:33.187Z,24.90
2019-01-18T18:42:33.048Z,22.30
2019-01-18T18:45:30.948Z,21.97
2019-01-18T18:48:30.721Z,26.77
2019-01-18T18:51:40.439Z,21.53
2019-01-18T18:54:49.805Z,24.47
2019-01-18T18:57:50.423Z,28.67
2019-01-18T19:00:47.778Z,19.30
2019-01-18T19:03:49.080Z,148.87
2019-01-18T19:06:47.266Z,22.63
2019-01-18T19:09:56.039Z,21.03
2019-01-18T19:12:53.657Z,27.47
2019-01-18T19:15:53.339Z,21.40
2019-01-18T19:18:44.228Z,23.10
2019-01-18T19:21:44.876Z,24.23
2019-01-18T19:24:40.447Z,31.43
2019-01-18T19:27:35.666Z,26.50
2019-01-18T19:30:37.539Z,34.47
2019-01-18T19:33:31.256Z,32.23
2019-01-18T19:36:26.182Z,87.20
2019-01-18T19:39:36.770Z,27.97
2019-01-18T19:42:31.663Z,31.73
2019-01-18T19:45:27.305Z,33.07
2019-01-18T19:48:30.472Z,30.20
2019-01-18T19:51:13.388Z,28.27
2019-01-18T19:54:13.165Z,28.60
2019-01-18T19:57:13.826Z,27.37
2019-01-18T20:00:16.092Z,30.73
2019-01-18T20:03:04.136Z,27.10
2019-01-18T20:06:12.989Z,27.80
2019-01-18T20:08:54.903Z,24.13
2019-01-18T20:12:04.490Z,22.07
2019-01-18T20:14:48.302Z,24.77
2019-01-18T20:17:57.434Z,20.57
2019-01-18T20:20:55.251Z,129.77
2019-01-18T20:24:00.960Z,74.57
2019-01-18T20:27:09.129Z,25.63
2019-01-18T20:30:18.186Z,24.57
2019-01-18T20:33:11.831Z,19.33
2019-01-18T20:36:09.027Z,29.23
2019-01-18T20:39:19.173Z,25.13
2019-01-18T20:42:29.865Z,29.87
2019-01-18T20:45:39.490Z,53.93
2019-01-18T20:48:25.854Z,108.43
2019-01-18T20:51:25.081Z,24.63
2019-01-18T20:54:17.348Z,21.30
2019-01-18T20:57:12.512Z,22.10
2019-01-18T21:00:10.349Z,24.60
2019-01-18T21:03:27.007Z,27.53
2019-01-18T21:06:23.777Z,22.10
2019-01-18T21:09:30.541Z,27.60
2019-01-18T21:12:40.338Z,20.03
2019-01-18T21:15:28.419Z,119.20
2019-01-18T21:18:28.376Z,40.07
2019-01-18T21:21:31.418Z,22.47
2019-01-18T21:24:44.023Z,23.47
2019-01-18T21:27:34.202Z,20.97
2019-01-18T21:30:31.154Z,25.87
2019-01-18T21:33:32.385Z,22.07
2019-01-18T21:36:37.540Z,22.97
2019-01-18T21:39:41.744Z,24.90
2019-01-18T21:42:33.488Z,32.93
2019-01-18T21:45:38.539Z,39.47
2019-01-18T21:48:47.016Z,71.00
2019-01-18T21:51:49.237Z,28.33
2019-01-18T21:54:54.375Z,26.47
2019-01-18T21:58:03.206Z,89.70
2019-01-18T22:01:15.025Z,31.37
2019-01-18T22:04:30.979Z,55.53
2019-01-18T22:07:39.193Z,26.90
2019-01-18T22:10:41.842Z,34.70
2019-01-18T22:13:58.868Z,35.47
2019-01-18T22:17:09.891Z,38.00
2019-01-18T22:20:03.332Z,35.73
2019-01-18T22:23:05.757Z,30.53
2019-01-18T22:26:17.801Z,35.17
2019-01-18T22:29:00.266Z,111.20
2019-01-18T22:32:12.625Z,64.27
2019-01-18T22:35:12.881Z,30.10
2019-01-18T22:38:14.690Z,45.97
2019-01-18T22:41:15.781Z,38.93
2019-01-18T22:44:16.020Z,41.37
2019-01-18T22:47:28.699Z,156.87
2019-01-18T22:50:41.869Z,52.00
2019-01-18T22:54:02.831Z,36.13
2019-01-18T22:57:11.425Z,44.20
2019-01-18T23:00:39.627Z,40.90
2019-01-18T23:03:56.635Z,44.57
2019-01-18T23:07:10.555Z,42.07
2019-01-18T23:10:21.053Z,41.53
2019-01-18T23:13:22.428Z,43.03
2019-01-18T23:16:36.268Z,37.20
2019-01-18T23:19:32.359Z,38.20
2019-01-18T23:22:41.185Z,37.27
2019-01-18T23:25:40.686Z,32.33
2019-01-18T23:28:38.966Z,40.27
2019-01-18T23:31:32.472Z,42.83
2019-01-18T23:34:15.032Z,41.90
2019-01-18T23:37:17.343Z,40.93
2019-01-18T23:40:00.718Z,42.97
2019-01-18T23:42:58.697Z,47.70
2019-01-18T23:46:08.290Z,42.90
2019-01-18T23:49:11.399Z,44.40
2019-01-18T23:51:51.131Z,48.23
2019-01-18T23:54:53.117Z,54.70
2019-01-18T23:57:51.059Z,56.33
